createdAt,value
2023-02-19T00:00:13.602Z,74.44
2023-02-19T00:01:13.594Z,74.28
2023-02-19T00:02:13.569Z,72.51
2023-02-19T00:03:13.603Z,72.99
2023-02-19T00:04:13.534Z,69.13
2023-02-19T00:05:13.565Z,72.99
2023-02-19T00:06:13.493Z,73.48
2023-02-19T00:07:13.487Z,73.96
2023-02-19T00:08:13.488Z,74.12
2023-02-19T00:09:13.476Z,72.99
2023-02-19T00:10:13.430Z,71.70
2023-02-19T00:11:13.407Z,74.93
2023-02-19T00:12:13.388Z,72.03
2023-02-19T00:13:13.408Z,77.18
2023-02-19T00:14:13.383Z,68.32
2023-02-19T00:15:13.339Z,71.70
2023-02-19T00:16:13.319Z,72.83
2023-02-19T00:17:13.306Z,73.15
2023-02-19T00:18:13.315Z,73.64
2023-02-19T00:19:13.298Z,72.19
2023-02-19T00:20:13.257Z,70.74
2023-02-19T00:21:13.241Z,74.28
2023-02-19T00:22:13.227Z,72.67
2023-02-19T00:23:13.254Z,74.28
2023-02-19T00:24:13.223Z,72.99
2023-02-19T00:25:13.168Z,71.54
2023-02-19T00:26:18.423Z,71.06
2023-02-19T00:27:15.124Z,70.90
2023-02-19T00:28:14.126Z,70.90
2023-02-19T00:29:13.126Z,69.45
2023-02-19T00:30:13.099Z,66.39
2023-02-19T00:31:13.535Z,66.87
2023-02-19T00:32:13.069Z,73.96
2023-02-19T00:33:14.027Z,74.93
2023-02-19T00:34:13.044Z,72.51
2023-02-19T00:35:13.005Z,72.67
2023-02-19T00:36:12.989Z,71.70
2023-02-19T00:37:12.963Z,72.35
2023-02-19T00:38:12.947Z,73.80
2023-02-19T00:39:12.956Z,72.51
2023-02-19T00:40:12.907Z,70.09
2023-02-19T00:41:12.895Z,71.06
2023-02-19T00:42:12.878Z,72.03
2023-02-19T00:43:12.878Z,71.38
2023-02-19T00:44:12.871Z,69.45
2023-02-19T00:45:12.823Z,67.84
2023-02-19T00:46:12.840Z,69.61
2023-02-19T00:47:12.807Z,71.87
2023-02-19T00:48:12.779Z,73.80
2023-02-19T00:49:12.792Z,74.12
2023-02-19T00:50:12.749Z,72.03
2023-02-19T00:51:12.787Z,67.03
2023-02-19T00:52:12.708Z,72.51
2023-02-19T00:53:12.695Z,70.42
2023-02-19T00:54:12.696Z,72.51
2023-02-19T00:55:12.669Z,74.44
2023-02-19T00:56:12.641Z,72.35
2023-02-19T00:57:12.631Z,69.13
2023-02-19T00:58:12.599Z,73.80
2023-02-19T00:59:12.608Z,73.48
2023-02-19T01:00:12.571Z,72.03
2023-02-19T01:01:12.614Z,72.99
2023-02-19T01:02:12.533Z,69.45
2023-02-19T01:03:12.514Z,74.93
2023-02-19T01:04:12.526Z,69.77
2023-02-19T01:05:12.477Z,74.93
2023-02-19T01:06:12.456Z,74.44
2023-02-19T01:07:12.458Z,74.44
2023-02-19T01:08:12.426Z,72.03
2023-02-19T01:09:12.453Z,73.48
2023-02-19T01:10:12.379Z,72.99
2023-02-19T01:11:13.486Z,72.67
2023-02-19T01:12:12.356Z,69.77
2023-02-19T01:13:12.338Z,70.90
2023-02-19T01:14:12.350Z,71.54
2023-02-19T01:15:12.304Z,72.99
2023-02-19T01:16:12.329Z,74.60
2023-02-19T01:17:12.335Z,72.51
2023-02-19T01:18:12.257Z,69.93
2023-02-19T01:19:12.755Z,74.60
2023-02-19T01:20:12.220Z,73.15
2023-02-19T01:21:12.467Z,72.83
2023-02-19T01:22:12.196Z,71.54
2023-02-19T01:23:12.161Z,72.83
2023-02-19T01:24:13.175Z,72.83
2023-02-19T01:25:12.132Z,69.13
2023-02-19T01:26:12.113Z,71.54
2023-02-19T01:27:12.094Z,72.19
2023-02-19T01:28:12.077Z,67.84
2023-02-19T01:29:12.090Z,69.93
2023-02-19T01:30:12.082Z,72.35
2023-02-19T01:31:12.506Z,68.80
2023-02-19T01:32:12.060Z,74.12
2023-02-19T01:33:11.994Z,72.99
2023-02-19T01:34:11.999Z,69.77
2023-02-19T01:35:11.973Z,73.64
2023-02-19T01:36:11.941Z,71.06
2023-02-19T01:37:11.919Z,72.19
2023-02-19T01:38:11.901Z,64.94
2023-02-19T01:39:11.916Z,78.79
2023-02-19T01:40:11.864Z,66.71
2023-02-19T01:41:12.241Z,77.50
2023-02-19T01:42:11.832Z,66.87
2023-02-19T01:43:11.816Z,65.10
2023-02-19T01:44:11.822Z,70.74
2023-02-19T01:45:11.779Z,74.12
2023-02-19T01:46:11.809Z,74.44
2023-02-19T01:47:11.744Z,76.86
2023-02-19T01:48:11.728Z,72.19
2023-02-19T01:49:11.744Z,63.00
2023-02-19T01:50:11.696Z,70.42
2023-02-19T01:51:11.999Z,68.96
2023-02-19T01:52:11.660Z,74.77
2023-02-19T01:53:11.641Z,75.57
2023-02-19T01:54:11.651Z,71.22
2023-02-19T01:55:11.614Z,71.06
2023-02-19T01:56:11.588Z,59.94
2023-02-19T01:57:11.604Z,68.32
2023-02-19T01:58:11.560Z,67.03
2023-02-19T01:59:11.569Z,72.35
2023-02-19T02:00:11.517Z,71.22
2023-02-19T02:01:11.959Z,68.32
2023-02-19T02:02:11.530Z,69.29
2023-02-19T02:03:11.468Z,69.29
2023-02-19T02:04:11.481Z,68.48
2023-02-19T02:05:11.428Z,71.22
2023-02-19T02:06:11.416Z,68.96
2023-02-19T02:07:11.395Z,72.67
2023-02-19T02:08:11.380Z,72.35
2023-02-19T02:09:11.392Z,70.25
2023-02-19T02:10:11.353Z,62.04
2023-02-19T02:11:11.601Z,72.67
2023-02-19T02:12:11.310Z,69.93
2023-02-19T02:13:11.297Z,72.03
2023-02-19T02:14:11.313Z,76.38
2023-02-19T02:15:11.267Z,63.33
2023-02-19T02:16:11.264Z,80.08
2023-02-19T02:17:11.242Z,72.67
2023-02-19T02:18:11.214Z,71.06
2023-02-19T02:19:11.227Z,67.84
2023-02-19T02:20:11.188Z,70.09
2023-02-19T02:21:11.446Z,67.51
2023-02-19T02:22:11.142Z,73.80
2023-02-19T02:23:11.125Z,65.26
2023-02-19T02:24:11.136Z,66.71
2023-02-19T02:25:11.092Z,73.32
2023-02-19T02:26:11.078Z,76.38
2023-02-19T02:27:11.056Z,71.06
2023-02-19T02:28:11.036Z,69.45
2023-02-19T02:29:11.051Z,70.09
2023-02-19T02:30:11.035Z,69.93
2023-02-19T02:31:11.320Z,72.19
2023-02-19T02:32:11.010Z,72.51
2023-02-19T02:33:10.964Z,73.64
2023-02-19T02:34:10.961Z,70.58
2023-02-19T02:35:10.928Z,75.09
2023-02-19T02:36:10.906Z,68.80
2023-02-19T02:37:10.892Z,67.03
2023-02-19T02:38:10.865Z,70.58
2023-02-19T02:39:10.901Z,52.53
2023-02-19T02:40:10.826Z,75.57
2023-02-19T02:41:11.093Z,70.74
2023-02-19T02:42:10.803Z,70.09
2023-02-19T02:43:10.782Z,72.35
2023-02-19T02:44:10.786Z,74.28
2023-02-19T02:45:10.744Z,67.51
2023-02-19T02:46:10.724Z,68.32
2023-02-19T02:47:10.708Z,71.87
2023-02-19T02:48:10.737Z,73.64
2023-02-19T02:49:10.700Z,71.87
2023-02-19T02:50:10.652Z,74.12
2023-02-19T02:51:10.942Z,69.93
2023-02-19T02:52:10.621Z,65.58
2023-02-19T02:53:10.603Z,74.44
2023-02-19T02:54:10.616Z,66.06
2023-02-19T02:55:10.562Z,52.05
2023-02-19T02:56:10.544Z,69.93
2023-02-19T02:57:10.531Z,69.45
2023-02-19T02:58:10.512Z,67.03
2023-02-19T02:59:10.520Z,51.56
2023-02-19T03:00:10.483Z,70.42
2023-02-19T03:01:10.773Z,71.54
2023-02-19T03:02:10.494Z,54.95
2023-02-19T03:03:10.424Z,68.96
2023-02-19T03:04:10.441Z,70.58
2023-02-19T03:05:10.389Z,59.14
2023-02-19T03:06:10.368Z,72.67
2023-02-19T03:07:10.389Z,66.87
2023-02-19T03:08:10.344Z,74.93
2023-02-19T03:09:10.319Z,69.77
2023-02-19T03:10:10.301Z,75.25
2023-02-19T03:11:10.538Z,66.71
2023-02-19T03:12:10.297Z,69.77
2023-02-19T03:13:10.263Z,66.06
2023-02-19T03:14:10.261Z,69.13
2023-02-19T03:15:10.224Z,71.06
2023-02-19T03:16:10.226Z,67.35
2023-02-19T03:17:10.186Z,67.03
2023-02-19T03:18:10.178Z,70.42
2023-02-19T03:19:10.172Z,72.99
2023-02-19T03:20:10.123Z,67.03
2023-02-19T03:21:10.548Z,70.09
2023-02-19T03:22:10.223Z,70.25
2023-02-19T03:23:10.071Z,67.35
2023-02-19T03:24:10.094Z,74.77
2023-02-19T03:25:10.048Z,69.45
2023-02-19T03:26:10.021Z,69.93
2023-02-19T03:27:10.004Z,68.48
2023-02-19T03:28:09.982Z,72.99
2023-02-19T03:29:10.007Z,70.25
2023-02-19T03:30:09.968Z,69.93
2023-02-19T03:31:10.283Z,60.26
2023-02-19T03:32:09.956Z,68.48
2023-02-19T03:33:09.900Z,69.29
2023-02-19T03:34:09.874Z,70.42
2023-02-19T03:35:09.890Z,73.15
2023-02-19T03:36:09.846Z,70.25
2023-02-19T03:37:09.834Z,70.74
2023-02-19T03:38:09.811Z,75.41
2023-02-19T03:39:09.796Z,73.15
2023-02-19T03:40:09.800Z,68.96
2023-02-19T03:41:10.089Z,74.12
2023-02-19T03:42:09.739Z,69.93
2023-02-19T03:43:09.809Z,72.99
2023-02-19T03:44:09.707Z,67.19
2023-02-19T03:45:09.720Z,69.45
2023-02-19T03:46:09.720Z,75.09
2023-02-19T03:47:09.659Z,70.58
2023-02-19T03:48:09.635Z,75.25
2023-02-19T03:49:09.626Z,70.90
2023-02-19T03:50:09.636Z,65.90
2023-02-19T03:51:09.882Z,68.00
2023-02-19T03:52:09.572Z,76.38
2023-02-19T03:53:09.553Z,68.32
2023-02-19T03:54:09.534Z,68.96
2023-02-19T03:55:09.547Z,73.48
2023-02-19T03:56:09.506Z,68.16
2023-02-19T03:57:09.485Z,69.13
2023-02-19T03:58:09.467Z,74.28
2023-02-19T03:59:09.450Z,67.03
2023-02-19T04:00:09.461Z,73.64
2023-02-19T04:01:09.839Z,68.16
2023-02-19T04:02:09.439Z,71.87
2023-02-19T04:03:09.381Z,67.19
2023-02-19T04:04:09.365Z,67.03
2023-02-19T04:05:09.376Z,69.77
2023-02-19T04:06:09.334Z,72.51
2023-02-19T04:07:09.321Z,71.54
2023-02-19T04:08:09.296Z,74.12
2023-02-19T04:09:09.278Z,72.67
2023-02-19T04:10:09.297Z,69.29
2023-02-19T04:11:09.649Z,72.03
2023-02-19T04:12:09.234Z,72.83
2023-02-19T04:13:09.212Z,68.64
2023-02-19T04:14:09.196Z,67.84
2023-02-19T04:15:09.208Z,74.44
2023-02-19T04:16:09.166Z,69.45
2023-02-19T04:17:09.151Z,69.29
2023-02-19T04:18:09.137Z,72.19
2023-02-19T04:19:09.119Z,72.03
2023-02-19T04:20:09.120Z,72.35
2023-02-19T04:21:09.425Z,71.38
2023-02-19T04:22:09.059Z,70.42
2023-02-19T04:23:09.038Z,71.54
2023-02-19T04:24:09.025Z,70.42
2023-02-19T04:25:09.043Z,69.77
2023-02-19T04:26:08.991Z,71.87
2023-02-19T04:27:08.977Z,73.32
2023-02-19T04:28:08.958Z,72.19
2023-02-19T04:29:08.938Z,70.42
2023-02-19T04:30:08.967Z,66.71
2023-02-19T04:31:09.374Z,73.64
2023-02-19T04:32:08.889Z,68.48
2023-02-19T04:33:08.873Z,71.06
2023-02-19T04:34:08.847Z,69.13
2023-02-19T04:35:08.868Z,73.32
2023-02-19T04:36:08.820Z,68.96
2023-02-19T04:37:08.794Z,74.12
2023-02-19T04:38:08.785Z,76.86
2023-02-19T04:39:08.752Z,75.09
2023-02-19T04:40:08.769Z,72.51
2023-02-19T04:41:09.151Z,73.96
2023-02-19T04:42:08.706Z,70.58
2023-02-19T04:43:08.688Z,75.89
2023-02-19T04:44:08.672Z,70.74
2023-02-19T04:45:08.681Z,74.77
2023-02-19T04:46:08.636Z,73.64
2023-02-19T04:47:08.617Z,73.80
2023-02-19T04:48:08.618Z,74.60
2023-02-19T04:49:08.585Z,72.03
2023-02-19T04:50:08.598Z,69.45
2023-02-19T04:51:08.800Z,70.58
2023-02-19T04:52:08.532Z,66.55
2023-02-19T04:53:08.521Z,72.99
2023-02-19T04:54:08.497Z,73.80
2023-02-19T04:55:08.514Z,72.19
2023-02-19T04:56:08.460Z,72.03
2023-02-19T04:57:08.448Z,69.29
2023-02-19T04:58:08.456Z,76.22
2023-02-19T04:59:08.411Z,70.90
2023-02-19T05:00:08.422Z,69.45
2023-02-19T05:01:08.703Z,72.83
2023-02-19T05:02:08.353Z,72.35
2023-02-19T05:03:08.349Z,74.60
2023-02-19T05:04:08.339Z,75.73
2023-02-19T05:05:08.345Z,72.83
2023-02-19T05:06:08.295Z,72.83
2023-02-19T05:07:08.268Z,73.80
2023-02-19T05:08:08.255Z,73.48
2023-02-19T05:09:08.242Z,72.03
2023-02-19T05:10:08.252Z,71.54
2023-02-19T05:11:08.431Z,75.09
2023-02-19T05:12:08.183Z,72.51
2023-02-19T05:13:08.164Z,72.51
2023-02-19T05:14:08.146Z,73.15
2023-02-19T05:15:08.161Z,76.86
2023-02-19T05:16:08.145Z,73.80
2023-02-19T05:17:08.097Z,74.28
2023-02-19T05:18:08.073Z,72.67
2023-02-19T05:19:08.073Z,70.90
2023-02-19T05:20:09.080Z,72.19
2023-02-19T05:21:08.374Z,70.42
2023-02-19T05:22:08.008Z,72.99
2023-02-19T05:23:08.074Z,75.41
2023-02-19T05:24:07.977Z,72.51
2023-02-19T05:25:07.986Z,68.80
2023-02-19T05:26:07.942Z,66.87
2023-02-19T05:27:07.923Z,71.87
2023-02-19T05:28:07.904Z,68.48
2023-02-19T05:29:07.887Z,67.03
2023-02-19T05:30:07.931Z,73.64
2023-02-19T05:31:07.962Z,69.93
2023-02-19T05:32:07.888Z,72.19
2023-02-19T05:33:07.817Z,68.16
2023-02-19T05:34:07.803Z,70.09
2023-02-19T05:35:07.820Z,67.35
2023-02-19T05:36:07.770Z,68.80
2023-02-19T05:37:07.748Z,69.77
2023-02-19T05:38:07.736Z,72.03
2023-02-19T05:39:07.752Z,75.25
2023-02-19T05:40:07.718Z,74.93
2023-02-19T05:41:07.710Z,73.32
2023-02-19T05:42:07.666Z,73.48
2023-02-19T05:43:07.661Z,72.35
2023-02-19T05:44:07.663Z,73.32
2023-02-19T05:45:07.644Z,73.64
2023-02-19T05:46:07.609Z,69.93
2023-02-19T05:47:07.585Z,69.45
2023-02-19T05:48:07.557Z,72.67
2023-02-19T05:49:07.546Z,72.83
2023-02-19T05:50:07.552Z,72.99
2023-02-19T05:51:07.578Z,72.03
2023-02-19T05:52:07.489Z,72.51
2023-02-19T05:53:07.477Z,70.90
2023-02-19T05:54:07.459Z,74.12
2023-02-19T05:55:07.475Z,76.54
2023-02-19T05:56:07.427Z,75.89
2023-02-19T05:57:07.413Z,73.32
2023-02-19T05:58:07.390Z,72.99
2023-02-19T05:59:07.405Z,72.83
2023-02-19T06:00:07.400Z,71.06
2023-02-19T06:01:07.345Z,75.89
2023-02-19T06:02:07.332Z,73.15
2023-02-19T06:03:07.311Z,73.15
2023-02-19T06:04:07.390Z,74.12
2023-02-19T06:05:07.300Z,71.22
2023-02-19T06:06:07.269Z,74.77
2023-02-19T06:07:07.244Z,74.44
2023-02-19T06:08:07.229Z,73.15
2023-02-19T06:09:07.210Z,72.83
2023-02-19T06:10:07.225Z,73.96
2023-02-19T06:11:07.176Z,72.19
2023-02-19T06:12:07.157Z,74.60
2023-02-19T06:13:07.140Z,74.93
2023-02-19T06:14:07.132Z,73.64
2023-02-19T06:15:07.135Z,75.73
2023-02-19T06:16:07.107Z,73.32
2023-02-19T06:17:07.065Z,75.41
2023-02-19T06:18:07.070Z,72.03
2023-02-19T06:19:07.051Z,76.54
2023-02-19T06:20:07.025Z,72.19
2023-02-19T06:21:07.034Z,72.83
2023-02-19T06:22:06.983Z,74.28
2023-02-19T06:23:06.963Z,73.15
2023-02-19T06:24:06.950Z,75.57
2023-02-19T06:25:06.977Z,73.32
2023-02-19T06:26:06.916Z,72.19
2023-02-19T06:27:06.903Z,72.35
2023-02-19T06:28:06.888Z,69.13
2023-02-19T06:29:06.861Z,72.83
2023-02-19T06:30:06.872Z,72.67
2023-02-19T06:31:06.878Z,75.25
2023-02-19T06:32:06.883Z,73.48
2023-02-19T06:33:06.805Z,71.22
2023-02-19T06:34:06.775Z,72.51
2023-02-19T06:35:06.805Z,74.60
2023-02-19T06:36:06.746Z,74.60
2023-02-19T06:37:06.728Z,69.61
2023-02-19T06:38:06.710Z,72.99
2023-02-19T06:39:06.693Z,74.28
2023-02-19T06:40:06.675Z,70.58
2023-02-19T06:41:06.699Z,76.22
2023-02-19T06:42:06.667Z,70.25
2023-02-19T06:43:06.624Z,72.19
2023-02-19T06:44:06.641Z,74.77
2023-02-19T06:45:06.593Z,76.22
2023-02-19T06:46:06.580Z,76.38
2023-02-19T06:47:06.560Z,74.93
2023-02-19T06:48:06.540Z,76.54
2023-02-19T06:49:06.567Z,74.60
2023-02-19T06:50:06.535Z,71.54
2023-02-19T06:51:06.489Z,75.89
2023-02-19T06:52:06.473Z,74.93
2023-02-19T06:53:06.459Z,74.77
2023-02-19T06:54:06.442Z,74.28
2023-02-19T06:55:06.421Z,71.54
2023-02-19T06:56:06.444Z,74.93
2023-02-19T06:57:06.382Z,76.22
2023-02-19T06:58:06.368Z,75.73
2023-02-19T06:59:06.349Z,73.96
2023-02-19T07:00:06.363Z,74.12
2023-02-19T07:01:06.349Z,72.67
2023-02-19T07:02:06.295Z,75.41
2023-02-19T07:03:06.274Z,72.67
2023-02-19T07:04:06.323Z,75.09
2023-02-19T07:05:06.246Z,73.64
2023-02-19T07:06:06.235Z,75.73
2023-02-19T07:07:06.203Z,74.60
2023-02-19T07:08:06.184Z,75.89
2023-02-19T07:09:06.194Z,74.77
2023-02-19T07:10:06.156Z,76.70
2023-02-19T07:11:06.164Z,75.73
2023-02-19T07:12:06.116Z,75.41
2023-02-19T07:13:06.098Z,72.67
2023-02-19T07:14:06.081Z,74.12
2023-02-19T07:15:06.077Z,74.28
2023-02-19T07:16:06.105Z,74.93
2023-02-19T07:17:06.026Z,73.64
2023-02-19T07:18:06.011Z,73.32
2023-02-19T07:19:05.991Z,74.60
2023-02-19T07:20:05.978Z,75.57
2023-02-19T07:21:06.721Z,75.57
2023-02-19T07:22:05.947Z,74.77
2023-02-19T07:23:05.924Z,73.32
2023-02-19T07:24:05.913Z,77.18
2023-02-19T07:25:05.892Z,72.51
2023-02-19T07:26:06.951Z,72.35
2023-02-19T07:27:05.862Z,73.15
2023-02-19T07:28:05.847Z,78.63
2023-02-19T07:29:05.827Z,73.80
2023-02-19T07:30:05.882Z,74.93
2023-02-19T07:31:05.857Z,73.80
2023-02-19T07:32:05.801Z,73.64
2023-02-19T07:33:05.787Z,74.44
2023-02-19T07:34:05.742Z,76.05
2023-02-19T07:35:05.742Z,77.67
2023-02-19T07:36:05.735Z,75.25
2023-02-19T07:37:05.716Z,77.02
2023-02-19T07:38:05.673Z,73.15
2023-02-19T07:39:05.654Z,75.73
2023-02-19T07:40:05.640Z,73.96
2023-02-19T07:41:05.663Z,75.89
2023-02-19T07:42:05.614Z,76.70
2023-02-19T07:43:05.590Z,73.64
2023-02-19T07:44:05.587Z,75.73
2023-02-19T07:45:05.558Z,75.25
2023-02-19T07:46:05.568Z,76.86
2023-02-19T07:47:05.524Z,73.64
2023-02-19T07:48:05.505Z,74.77
2023-02-19T07:49:05.524Z,74.77
2023-02-19T07:50:05.479Z,77.02
2023-02-19T07:51:05.500Z,75.57
2023-02-19T07:52:05.439Z,77.02
2023-02-19T07:53:05.420Z,77.18
2023-02-19T07:54:05.407Z,77.34
2023-02-19T07:55:05.415Z,78.15
2023-02-19T07:56:05.413Z,72.51
2023-02-19T07:57:05.361Z,74.44
2023-02-19T07:58:06.288Z,75.89
2023-02-19T07:59:06.323Z,75.41
2023-02-19T08:00:05.306Z,75.25
2023-02-19T08:01:05.342Z,71.70
2023-02-19T08:02:05.270Z,75.41
2023-02-19T08:03:05.274Z,76.05
2023-02-19T08:04:05.234Z,74.93
2023-02-19T08:05:05.214Z,74.12
2023-02-19T08:06:05.218Z,76.22
2023-02-19T08:07:05.175Z,76.54
2023-02-19T08:08:05.154Z,74.77
2023-02-19T08:09:05.138Z,74.77
2023-02-19T08:10:05.148Z,77.83
2023-02-19T08:11:05.126Z,73.80
2023-02-19T08:12:05.083Z,76.22
2023-02-19T08:13:05.065Z,74.28
2023-02-19T08:14:05.055Z,75.89
2023-02-19T08:15:05.039Z,76.86
2023-02-19T08:16:17.066Z,75.25
2023-02-19T08:17:07.018Z,74.77
2023-02-19T08:18:04.973Z,74.44
2023-02-19T08:19:04.949Z,73.80
2023-02-19T08:20:04.934Z,75.57
2023-02-19T08:21:04.940Z,76.05
2023-02-19T08:22:05.901Z,74.77
2023-02-19T08:23:04.882Z,73.64
2023-02-19T08:24:04.865Z,77.02
2023-02-19T08:25:04.847Z,76.38
2023-02-19T08:26:04.859Z,74.60
2023-02-19T08:27:04.809Z,76.54
2023-02-19T08:28:04.789Z,75.41
2023-02-19T08:29:05.778Z,73.80
2023-02-19T08:30:04.819Z,74.93
2023-02-19T08:31:04.833Z,73.15
2023-02-19T08:32:04.756Z,77.83
2023-02-19T08:33:04.711Z,75.41
2023-02-19T08:34:04.921Z,75.09
2023-02-19T08:35:04.667Z,76.22
2023-02-19T08:36:04.672Z,77.02
2023-02-19T08:37:04.634Z,76.70
2023-02-19T08:38:04.624Z,76.86
2023-02-19T08:39:04.601Z,74.93
2023-02-19T08:40:04.591Z,73.80
2023-02-19T08:41:04.596Z,75.89
2023-02-19T08:42:04.555Z,77.50
2023-02-19T08:43:04.551Z,75.73
2023-02-19T08:44:04.510Z,76.86
2023-02-19T08:45:04.492Z,76.54
2023-02-19T08:46:04.571Z,77.02
2023-02-19T08:47:04.457Z,76.38
2023-02-19T08:48:04.442Z,75.41
2023-02-19T08:49:04.418Z,76.22
2023-02-19T08:50:04.403Z,75.89
2023-02-19T08:51:04.424Z,75.09
2023-02-19T08:52:04.367Z,74.77
2023-02-19T08:53:04.353Z,74.28
2023-02-19T08:54:04.347Z,74.77
2023-02-19T08:55:04.313Z,74.12
2023-02-19T08:56:04.330Z,77.34
2023-02-19T08:57:04.280Z,75.25
2023-02-19T08:58:04.265Z,75.89
2023-02-19T08:59:04.251Z,76.22
2023-02-19T09:00:04.233Z,74.12
2023-02-19T09:01:04.255Z,74.93
2023-02-19T09:02:04.198Z,76.86
2023-02-19T09:03:04.186Z,75.89
2023-02-19T09:04:04.248Z,75.73
2023-02-19T09:05:04.153Z,77.83
2023-02-19T09:06:04.158Z,75.57
2023-02-19T09:07:04.113Z,75.09
2023-02-19T09:08:04.102Z,77.50
2023-02-19T09:09:04.080Z,76.05
2023-02-19T09:10:04.062Z,74.77
2023-02-19T09:11:04.073Z,73.15
2023-02-19T09:12:04.027Z,74.77
2023-02-19T09:13:04.011Z,75.73
2023-02-19T09:14:03.996Z,77.18
2023-02-19T09:15:03.973Z,75.57
2023-02-19T09:16:04.032Z,79.28
2023-02-19T09:17:03.952Z,79.12
2023-02-19T09:18:03.922Z,77.83
2023-02-19T09:19:03.908Z,76.22
2023-02-19T09:20:03.926Z,75.89
2023-02-19T09:21:03.877Z,78.31
2023-02-19T09:22:03.856Z,77.99
2023-02-19T09:23:03.845Z,77.99
2023-02-19T09:24:03.826Z,79.44
2023-02-19T09:25:03.840Z,77.99
2023-02-19T09:26:03.821Z,79.28
2023-02-19T09:27:03.776Z,76.86
2023-02-19T09:28:03.757Z,79.44
2023-02-19T09:29:03.743Z,81.69
2023-02-19T09:30:03.779Z,79.28
2023-02-19T09:31:03.786Z,78.96
2023-02-19T09:32:03.772Z,77.99
2023-02-19T09:33:03.670Z,78.96
2023-02-19T09:34:03.657Z,79.44
2023-02-19T09:35:03.638Z,78.31
2023-02-19T09:36:03.666Z,78.15
2023-02-19T09:37:03.606Z,78.47
2023-02-19T09:38:03.605Z,79.76
2023-02-19T09:39:03.577Z,78.47
2023-02-19T09:40:03.595Z,79.44
2023-02-19T09:41:03.541Z,80.24
2023-02-19T09:42:03.526Z,80.89
2023-02-19T09:43:03.507Z,79.12
2023-02-19T09:44:03.497Z,78.63
2023-02-19T09:45:03.505Z,80.57
2023-02-19T09:46:03.493Z,80.73
2023-02-19T09:47:03.470Z,81.69
2023-02-19T09:48:03.425Z,79.60
2023-02-19T09:49:03.415Z,79.92
2023-02-19T09:50:04.325Z,81.05
2023-02-19T09:51:03.376Z,80.73
2023-02-19T09:52:03.387Z,80.57
2023-02-19T09:53:03.340Z,80.08
2023-02-19T09:54:03.322Z,81.53
2023-02-19T09:55:03.299Z,81.21
2023-02-19T09:56:03.277Z,80.89
2023-02-19T09:57:03.290Z,81.53
2023-02-19T09:58:03.245Z,80.24
2023-02-19T09:59:03.227Z,80.73
2023-02-19T10:00:03.214Z,80.89
2023-02-19T10:01:03.207Z,81.53
2023-02-19T10:02:03.208Z,82.34
2023-02-19T10:03:03.161Z,80.08
2023-02-19T10:04:03.153Z,80.24
2023-02-19T10:05:03.179Z,82.02
2023-02-19T10:06:03.103Z,79.60
2023-02-19T10:07:03.121Z,80.24
2023-02-19T10:08:03.073Z,81.21
2023-02-19T10:09:03.056Z,81.21
2023-02-19T10:10:03.073Z,82.02
2023-02-19T10:11:03.019Z,80.41
2023-02-19T10:12:03.030Z,79.92
2023-02-19T10:13:02.990Z,81.69
2023-02-19T10:14:02.958Z,81.05
2023-02-19T10:15:03.963Z,81.86
2023-02-19T10:16:02.978Z,80.89
2023-02-19T10:17:02.951Z,81.37
2023-02-19T10:18:02.902Z,80.89
2023-02-19T10:19:02.886Z,80.57
2023-02-19T10:20:02.869Z,80.89
2023-02-19T10:21:02.861Z,81.21
2023-02-19T10:22:02.856Z,82.50
2023-02-19T10:23:02.813Z,82.50
2023-02-19T10:24:02.799Z,82.02
2023-02-19T10:25:02.802Z,82.02
2023-02-19T10:26:02.775Z,81.53
2023-02-19T10:27:02.773Z,81.86
2023-02-19T10:28:02.723Z,81.53
2023-02-19T10:29:02.709Z,82.02
2023-02-19T10:30:02.763Z,82.02
2023-02-19T10:31:02.751Z,81.37
2023-02-19T10:32:02.698Z,82.02
2023-02-19T10:33:03.666Z,80.57
2023-02-19T10:34:03.626Z,80.57
2023-02-19T10:35:02.618Z,80.57
2023-02-19T10:36:02.608Z,80.08
2023-02-19T10:37:02.616Z,82.66
2023-02-19T10:38:02.561Z,81.05
2023-02-19T10:39:02.545Z,80.57
2023-02-19T10:40:02.528Z,80.73
2023-02-19T10:41:02.515Z,81.53
2023-02-19T10:42:02.530Z,80.57
2023-02-19T10:43:02.481Z,79.28
2023-02-19T10:44:02.466Z,79.12
2023-02-19T10:45:02.444Z,81.53
2023-02-19T10:46:02.423Z,81.86
2023-02-19T10:47:02.436Z,80.08
2023-02-19T10:48:02.399Z,79.44
2023-02-19T10:49:02.378Z,80.73
2023-02-19T10:50:04.482Z,81.05
2023-02-19T10:51:03.337Z,79.28
2023-02-19T10:52:02.347Z,81.05
2023-02-19T10:53:02.308Z,79.76
2023-02-19T10:54:02.287Z,80.08
2023-02-19T10:55:02.274Z,80.41
2023-02-19T10:56:02.256Z,79.76
2023-02-19T10:57:02.275Z,79.76
2023-02-19T10:58:02.232Z,78.15
2023-02-19T10:59:02.205Z,79.60
2023-02-19T11:00:02.193Z,80.57
2023-02-19T11:01:03.468Z,80.57
2023-02-19T11:02:02.205Z,78.96
2023-02-19T11:03:02.140Z,79.76
2023-02-19T11:04:02.153Z,80.89
2023-02-19T11:05:02.104Z,80.08
2023-02-19T11:06:02.083Z,81.05
2023-02-19T11:07:02.094Z,81.21
2023-02-19T11:08:02.052Z,80.89
2023-02-19T11:09:02.048Z,80.57
2023-02-19T11:10:02.029Z,80.08
2023-02-19T11:11:01.991Z,78.47
2023-02-19T11:12:03.013Z,78.96
2023-02-19T11:13:01.968Z,80.24
2023-02-19T11:14:01.946Z,80.73
2023-02-19T11:15:01.933Z,81.05
2023-02-19T11:16:01.971Z,79.60
2023-02-19T11:17:01.936Z,81.05
2023-02-19T11:18:01.879Z,81.05
2023-02-19T11:19:01.869Z,80.89
2023-02-19T11:20:01.858Z,80.89
2023-02-19T11:21:01.835Z,79.92
2023-02-19T11:22:01.839Z,80.41
2023-02-19T11:23:01.809Z,80.08
2023-02-19T11:24:01.781Z,80.08
2023-02-19T11:25:01.762Z,79.44
2023-02-19T11:26:01.748Z,79.44
2023-02-19T11:27:01.756Z,80.57
2023-02-19T11:28:01.710Z,80.73
2023-02-19T11:29:01.694Z,80.73
2023-02-19T11:30:01.698Z,79.76
2023-02-19T11:31:01.693Z,80.08
2023-02-19T11:32:01.733Z,80.24
2023-02-19T11:33:01.630Z,79.60
2023-02-19T11:34:01.623Z,80.73
2023-02-19T11:35:01.594Z,81.37
2023-02-19T11:36:01.579Z,79.60
2023-02-19T11:37:01.584Z,80.24
2023-02-19T11:38:01.533Z,79.44
2023-02-19T11:39:01.537Z,79.92
2023-02-19T11:40:01.506Z,81.05
2023-02-19T11:41:01.483Z,77.99
2023-02-19T11:42:01.520Z,80.41
2023-02-19T11:43:01.454Z,79.76
2023-02-19T11:44:01.441Z,79.92
2023-02-19T11:45:01.422Z,79.60
2023-02-19T11:46:01.403Z,80.24
2023-02-19T11:47:01.416Z,81.21
2023-02-19T11:48:01.372Z,80.57
2023-02-19T11:49:01.353Z,79.92
2023-02-19T11:50:01.334Z,78.79
2023-02-19T11:51:01.326Z,78.31
2023-02-19T11:52:01.303Z,77.99
2023-02-19T11:53:01.323Z,79.60
2023-02-19T11:54:01.268Z,80.41
2023-02-19T11:55:01.249Z,79.44
2023-02-19T11:56:01.233Z,80.08
2023-02-19T11:57:01.218Z,79.12
2023-02-19T11:58:01.238Z,80.08
2023-02-19T11:59:01.388Z,80.57
2023-02-19T12:00:01.159Z,80.24
2023-02-19T12:01:01.158Z,80.41
2023-02-19T12:02:01.181Z,80.08
2023-02-19T12:03:01.134Z,81.05
2023-02-19T12:04:01.105Z,81.05
2023-02-19T12:05:01.094Z,80.41
2023-02-19T12:06:01.051Z,79.28
2023-02-19T12:07:01.036Z,79.92
2023-02-19T12:08:01.044Z,81.69
2023-02-19T12:09:01.000Z,79.92
2023-02-19T12:10:00.979Z,79.44
2023-02-19T12:11:00.962Z,81.21
2023-02-19T12:12:00.953Z,82.82
2023-02-19T12:13:00.957Z,80.73
2023-02-19T12:14:01.909Z,80.89
2023-02-19T12:15:00.904Z,80.41
2023-02-19T12:16:00.898Z,80.57
2023-02-19T12:17:00.859Z,80.08
2023-02-19T12:18:00.880Z,79.60
2023-02-19T12:19:00.822Z,79.92
2023-02-19T12:20:00.810Z,79.60
2023-02-19T12:21:00.787Z,80.08
2023-02-19T12:22:00.766Z,82.02
2023-02-19T12:23:00.777Z,79.76
2023-02-19T12:24:00.732Z,81.05
2023-02-19T12:25:00.719Z,82.18
2023-02-19T12:26:00.700Z,80.89
2023-02-19T12:27:00.680Z,80.24
2023-02-19T12:28:00.692Z,81.53
2023-02-19T12:29:00.645Z,80.24
2023-02-19T12:30:00.701Z,80.57
2023-02-19T12:31:00.647Z,81.53
2023-02-19T12:32:00.639Z,80.08
2023-02-19T12:33:00.607Z,80.41
2023-02-19T12:34:00.556Z,79.76
2023-02-19T12:35:00.543Z,79.44
2023-02-19T12:36:00.528Z,81.37
2023-02-19T12:37:00.506Z,81.69
2023-02-19T12:38:00.526Z,81.05
2023-02-19T12:39:00.471Z,79.92
2023-02-19T12:40:00.461Z,80.57
2023-02-19T12:41:00.436Z,80.57
2023-02-19T12:42:00.418Z,79.92
2023-02-19T12:43:00.427Z,79.44
2023-02-19T12:44:00.381Z,79.92
2023-02-19T12:45:00.361Z,80.57
2023-02-19T12:46:00.385Z,79.44
2023-02-19T12:47:00.333Z,79.12
2023-02-19T12:48:00.344Z,79.92
2023-02-19T12:49:00.294Z,78.96
2023-02-19T12:50:00.276Z,80.57
2023-02-19T12:51:00.262Z,79.44
2023-02-19T12:52:00.232Z,80.08